Time;durP1;ratioP1;P1;durP2;ratioP2;P2;SDS_P1;SDS_P2;PMS_P1;PMS_P2;Temp;Humidity;BMP_temperature;BMP_pressure;BME280_temperature;BME280_humidity;BME280_pressure;Samples;Min_cycle;Max_cycle;Signal;HPM_P1;HPM_P2
2021/12/30 00:01:58;;;;;;;75.28;13.02;;;10.70;99.90;;;;;;5029966;28;20040;-73
2021/12/30 00:04:25;;;;;;;82.97;12.52;;;10.70;99.90;;;;;;5030297;28;20026;-74
2021/12/30 00:06:51;;;;;;;69.90;12.88;;;10.80;99.90;;;;;;5030362;28;20033;-74
2021/12/30 00:09:19;;;;;;;77.50;12.63;;;10.80;99.90;;;;;;5030081;28;20021;-74
2021/12/30 00:11:45;;;;;;;68.43;12.10;;;10.80;99.90;;;;;;5030058;28;20013;-73
2021/12/30 00:14:11;;;;;;;76.35;12.35;;;10.80;99.90;;;;;;5030240;28;20025;-74
2021/12/30 00:16:37;;;;;;;61.88;11.82;;;10.80;99.90;;;;;;5030194;28;20378;-74
2021/12/30 00:19:04;;;;;;;73.45;11.38;;;10.80;99.90;;;;;;5029968;28;20087;-74
2021/12/30 00:21:30;;;;;;;65.72;11.40;;;10.90;99.90;;;;;;5029793;28;20037;-74
2021/12/30 00:23:55;;;;;;;75.82;12.25;;;10.90;99.90;;;;;;5115653;27;20032;-74
2021/12/30 00:26:21;;;;;;;73.65;11.57;;;10.90;99.90;;;;;;5029774;28;20074;-74
2021/12/30 00:28:47;;;;;;;66.03;11.75;;;10.90;99.90;;;;;;5029474;28;20056;-74
2021/12/30 00:31:13;;;;;;;75.38;11.55;;;10.90;99.90;;;;;;5029667;28;20124;-74
2021/12/30 00:33:38;;;;;;;66.10;11.45;;;10.90;99.90;;;;;;5029675;28;20018;-75
2021/12/30 00:36:06;;;;;;;73.30;12.23;;;11.00;99.90;;;;;;5029930;28;20150;-75
2021/12/30 00:38:33;;;;;;;60.88;11.23;;;11.00;99.90;;;;;;5029541;28;20034;-75
2021/12/30 00:40:59;;;;;;;66.82;11.75;;;11.00;99.90;;;;;;5029643;28;20018;-75
2021/12/30 00:43:25;;;;;;;71.28;11.82;;;11.10;99.90;;;;;;5029974;28;20036;-75
2021/12/30 00:45:51;;;;;;;58.85;11.10;;;11.10;99.90;;;;;;5029543;28;20492;-75
2021/12/30 00:48:17;;;;;;;53.30;11.10;;;11.20;99.90;;;;;;5028088;28;20041;-75
2021/12/30 00:50:46;;;;;;;54.28;10.93;;;11.20;99.90;;;;;;5029350;28;20029;-75
2021/12/30 00:53:11;;;;;;;61.22;11.80;;;11.20;99.90;;;;;;5029227;28;20044;-74
2021/12/30 00:55:39;;;;;;;66.18;11.90;;;11.30;99.90;;;;;;5028611;28;20018;-75
2021/12/30 00:58:05;;;;;;;64.82;13.27;;;11.30;99.90;;;;;;5027955;28;20113;-75
2021/12/30 01:00:31;;;;;;;59.95;12.90;;;11.30;99.90;;;;;;5029631;28;20034;-75
2021/12/30 01:02:57;;;;;;;68.40;14.38;;;11.40;99.90;;;;;;5029375;28;20026;-75
2021/12/30 01:05:23;;;;;;;52.75;13.52;;;11.40;99.90;;;;;;5029420;28;20484;-74
2021/12/30 01:07:49;;;;;;;61.35;14.15;;;11.40;99.90;;;;;;5114807;27;20393;-74
2021/12/30 01:10:17;;;;;;;63.13;15.52;;;11.40;99.90;;;;;;5029228;28;20026;-74
2021/12/30 01:12:44;;;;;;;61.05;16.75;;;11.50;99.90;;;;;;5029129;28;20116;-74
2021/12/30 01:15:11;;;;;;;80.32;17.52;;;11.50;99.90;;;;;;5028973;28;20057;-74
2021/12/30 01:17:46;;;;;;;65.55;16.55;;;11.50;99.90;;;;;;5029175;28;20026;-74
2021/12/30 01:20:14;;;;;;;69.75;17.95;;;11.50;99.90;;;;;;5029092;28;20456;-74
2021/12/30 01:22:40;;;;;;;62.53;16.85;;;11.50;99.90;;;;;;5029066;28;20032;-74
2021/12/30 01:25:07;;;;;;;69.28;16.90;;;11.40;99.90;;;;;;5028901;28;20109;-73
2021/12/30 01:27:40;;;;;;;67.63;16.80;;;11.40;99.90;;;;;;5028989;28;20673;-74
2021/12/30 01:30:08;;;;;;;67.75;16.38;;;11.40;99.90;;;;;;5028777;28;20553;-74
2021/12/30 01:32:34;;;;;;;64.03;16.45;;;11.40;99.90;;;;;;5028878;28;20029;-74
2021/12/30 01:35:00;;;;;;;67.95;16.65;;;11.40;99.90;;;;;;5028804;28;20029;-74
2021/12/30 01:37:26;;;;;;;59.33;15.90;;;11.40;99.90;;;;;;5028606;28;20379;-73
2021/12/30 01:39:53;;;;;;;59.30;17.27;;;11.50;99.90;;;;;;5027519;27;20021;-74
2021/12/30 01:42:19;;;;;;;61.65;15.90;;;11.50;99.90;;;;;;5028839;28;20032;-74
2021/12/30 01:44:45;;;;;;;61.47;16.63;;;11.50;99.90;;;;;;5028916;28;20021;-75
2021/12/30 01:47:11;;;;;;;64.32;15.68;;;11.50;99.90;;;;;;5028726;28;20051;-75
2021/12/30 01:49:36;;;;;;;68.38;15.77;;;11.50;99.90;;;;;;5028404;28;20017;-74
2021/12/30 01:52:03;;;;;;;56.17;15.00;;;11.50;99.90;;;;;;5028318;28;20513;-75
2021/12/30 01:54:28;;;;;;;56.30;15.77;;;11.50;99.90;;;;;;5028260;28;20112;-74
2021/12/30 01:57:02;;;;;;;50.97;16.02;;;11.50;99.90;;;;;;5028418;28;20112;-74
2021/12/30 01:59:29;;;;;;;55.42;14.93;;;11.60;99.90;;;;;;5028397;28;20037;-74
2021/12/30 02:01:57;;;;;;;59.10;15.77;;;11.60;99.90;;;;;;5028437;28;20021;-75
2021/12/30 02:04:24;;;;;;;50.78;14.80;;;11.60;99.90;;;;;;5028295;28;20025;-75
2021/12/30 02:06:52;;;;;;;55.05;14.90;;;11.60;99.90;;;;;;5027811;28;20029;-73
2021/12/30 02:09:19;;;;;;;44.20;14.98;;;11.70;99.90;;;;;;5028261;28;20378;-74
2021/12/30 02:11:45;;;;;;;34.80;13.50;;;11.70;99.90;;;;;;5028595;28;20055;-73
2021/12/30 02:14:11;;;;;;;38.95;13.13;;;11.70;99.90;;;;;;5113776;27;20478;-73
2021/12/30 02:16:37;;;;;;;32.13;12.65;;;11.80;99.90;;;;;;5028197;28;20379;-74
2021/12/30 02:19:03;;;;;;;42.03;11.38;;;11.80;99.90;;;;;;5028480;28;20021;-74
2021/12/30 02:21:29;;;;;;;39.00;11.45;;;11.80;99.90;;;;;;5027695;28;20020;-74
2021/12/30 02:23:57;;;;;;;29.77;10.35;;;11.90;99.90;;;;;;5028384;28;20140;-73
2021/12/30 02:26:23;;;;;;;25.30;9.75;;;11.90;99.90;;;;;;5028149;28;20352;-74
2021/12/30 02:28:49;;;;;;;28.42;9.63;;;11.90;99.90;;;;;;5028307;27;20389;-74
2021/12/30 02:31:18;;;;;;;31.80;10.07;;;11.90;99.90;;;;;;5027826;28;20042;-73
2021/12/30 02:33:44;;;;;;;37.00;10.68;;;11.90;99.90;;;;;;5027840;28;20363;-73
2021/12/30 02:36:12;;;;;;;28.38;9.68;;;12.00;99.90;;;;;;5028248;28;20029;-73
2021/12/30 02:38:37;;;;;;;30.23;10.30;;;12.00;99.90;;;;;;5027755;28;20026;-74
2021/12/30 02:41:04;;;;;;;28.08;10.32;;;12.00;99.90;;;;;;5027745;28;20425;-74
2021/12/30 02:43:32;;;;;;;22.45;9.68;;;12.00;99.90;;;;;;5032780;28;20022;-74
2021/12/30 02:46:00;;;;;;;29.08;10.27;;;12.00;99.90;;;;;;5027737;28;20428;-74
2021/12/30 02:48:30;;;;;;;23.55;9.65;;;12.00;99.90;;;;;;5027689;28;20047;-74
2021/12/30 02:50:58;;;;;;;22.90;9.38;;;12.10;99.90;;;;;;5027637;28;20026;-75
2021/12/30 02:53:25;;;;;;;25.10;10.10;;;12.10;99.90;;;;;;5027730;28;20033;-74
2021/12/30 02:55:53;;;;;;;29.95;9.98;;;12.10;99.90;;;;;;5026121;28;20074;-74
2021/12/30 02:58:20;;;;;;;26.27;9.98;;;12.10;99.90;;;;;;5028376;28;20095;-74
2021/12/30 03:00:46;;;;;;;31.65;10.80;;;12.20;99.90;;;;;;5027390;28;20028;-75
2021/12/30 03:03:20;;;;;;;33.75;10.63;;;12.20;99.90;;;;;;5027397;28;20048;-75
2021/12/30 03:05:47;;;;;;;32.53;11.02;;;12.20;99.90;;;;;;5027526;28;20041;-74
2021/12/30 03:08:12;;;;;;;34.10;11.07;;;12.20;99.90;;;;;;5027390;28;20109;-74
2021/12/30 03:10:38;;;;;;;38.95;11.85;;;12.30;99.90;;;;;;5026093;28;20574;-74
2021/12/30 03:13:07;;;;;;;36.88;11.65;;;12.30;99.90;;;;;;5027194;28;20424;-74
2021/12/30 03:15:33;;;;;;;35.47;12.40;;;12.30;99.90;;;;;;5025564;28;20057;-75
2021/12/30 03:17:59;;;;;;;39.97;12.35;;;12.20;99.90;;;;;;5026846;28;20049;-74
2021/12/30 03:20:24;;;;;;;35.05;11.43;;;12.30;99.90;;;;;;5030893;28;20022;-75
2021/12/30 03:22:50;;;;;;;34.20;11.98;;;12.20;99.90;;;;;;5031136;28;20037;-74
2021/12/30 03:25:16;;;;;;;39.45;12.68;;;12.30;99.90;;;;;;5030903;28;20102;-74
2021/12/30 03:27:42;;;;;;;41.72;13.27;;;12.20;99.90;;;;;;5029426;28;20066;-74
2021/12/30 03:30:12;;;;;;;41.35;12.65;;;12.20;99.90;;;;;;5030339;28;20054;-74
2021/12/30 03:32:38;;;;;;;43.47;12.57;;;12.20;99.90;;;;;;5029296;28;20033;-75
2021/12/30 03:35:05;;;;;;;45.40;13.15;;;12.20;99.90;;;;;;5030967;28;20017;-74
2021/12/30 03:37:31;;;;;;;40.72;13.13;;;12.20;99.90;;;;;;5030368;28;20052;-75
2021/12/30 03:39:57;;;;;;;37.28;13.52;;;12.20;99.90;;;;;;5030749;28;20030;-74
2021/12/30 03:42:22;;;;;;;46.25;13.38;;;12.20;99.90;;;;;;5029214;28;20049;-75
2021/12/30 03:44:48;;;;;;;38.10;13.70;;;12.20;99.90;;;;;;5030492;28;20018;-74
2021/12/30 03:47:18;;;;;;;39.58;13.65;;;12.20;99.90;;;;;;5030578;28;20025;-75
2021/12/30 03:49:46;;;;;;;38.08;14.07;;;12.20;99.90;;;;;;5030620;28;20025;-74
2021/12/30 03:52:15;;;;;;;38.65;14.93;;;12.20;99.90;;;;;;5030468;28;20052;-74
2021/12/30 03:54:42;;;;;;;39.38;14.60;;;12.20;99.90;;;;;;5030626;28;20267;-74
2021/12/30 03:57:08;;;;;;;34.97;13.18;;;12.30;99.90;;;;;;5028924;28;20033;-74
2021/12/30 03:59:34;;;;;;;37.95;14.43;;;12.20;99.90;;;;;;5030326;28;20025;-74
2021/12/30 04:02:00;;;;;;;37.35;13.48;;;12.20;99.90;;;;;;5030408;28;20024;-74
2021/12/30 04:04:25;;;;;;;41.65;12.98;;;12.30;99.90;;;;;;5030285;28;20125;-73
2021/12/30 04:06:51;;;;;;;31.95;11.60;;;12.30;99.90;;;;;;5029999;28;20030;-73
2021/12/30 04:09:18;;;;;;;40.83;14.25;;;12.30;99.90;;;;;;5030397;28;20014;-74
2021/12/30 04:11:43;;;;;;;35.20;13.35;;;12.30;99.90;;;;;;5028751;28;20493;-73
2021/12/30 04:14:09;;;;;;;34.30;12.55;;;12.30;99.90;;;;;;5028570;28;20017;-74
2021/12/30 04:16:35;;;;;;;37.47;11.85;;;12.30;99.90;;;;;;5030054;28;20061;-74
2021/12/30 04:19:01;;;;;;;35.33;10.73;;;12.30;99.90;;;;;;5029961;28;20029;-73
2021/12/30 04:21:27;;;;;;;30.40;10.43;;;12.40;99.90;;;;;;5030043;28;20022;-73
2021/12/30 04:23:52;;;;;;;34.88;9.90;;;12.30;99.90;;;;;;5029912;28;20030;-74
2021/12/30 04:26:18;;;;;;;31.52;9.65;;;12.40;99.90;;;;;;5029955;28;20100;-74
2021/12/30 04:28:44;;;;;;;35.92;9.38;;;12.40;99.90;;;;;;5029606;28;20025;-74
2021/12/30 04:31:10;;;;;;;35.78;10.32;;;12.40;99.90;;;;;;5029743;28;20102;-74
2021/12/30 04:33:36;;;;;;;36.15;9.07;;;12.40;99.90;;;;;;5029931;28;20045;-73
2021/12/30 04:36:03;;;;;;;32.95;9.20;;;12.40;99.90;;;;;;5030238;28;20014;-74
2021/12/30 04:38:30;;;;;;;31.48;9.57;;;12.40;99.90;;;;;;5029635;28;20470;-74
2021/12/30 04:40:56;;;;;;;29.75;8.68;;;12.40;99.90;;;;;;5029610;28;20022;-74
2021/12/30 04:43:22;;;;;;;30.45;9.35;;;12.40;99.90;;;;;;5029904;28;20022;-75
2021/12/30 04:45:48;;;;;;;32.15;8.90;;;12.30;99.90;;;;;;5029736;28;20494;-74
2021/12/30 04:48:16;;;;;;;25.10;8.02;;;12.30;99.90;;;;;;5029516;28;20025;-74
2021/12/30 04:50:44;;;;;;;25.23;8.52;;;12.30;99.90;;;;;;5030324;28;20454;-74
2021/12/30 04:53:10;;;;;;;32.30;9.10;;;12.40;99.90;;;;;;5029944;28;20051;-73
2021/12/30 04:55:36;;;;;;;30.70;9.00;;;12.30;99.90;;;;;;5030613;28;20017;-73
2021/12/30 04:58:01;;;;;;;28.35;8.15;;;12.30;99.90;;;;;;5030054;28;20408;-74
2021/12/30 05:00:33;;;;;;;27.60;7.22;;;12.30;99.90;;;;;;5030862;28;20028;-75
2021/12/30 05:03:13;;;;;;;26.25;8.02;;;12.30;99.90;;;;;;5031001;28;20033;-74
2021/12/30 05:05:50;;;;;;;22.90;7.97;;;12.30;99.90;;;;;;5031365;28;20022;-75
2021/12/30 05:08:18;;;;;;;23.88;7.35;;;12.30;99.90;;;;;;5030409;28;20064;-74
2021/12/30 05:10:44;;;;;;;21.80;7.47;;;12.30;99.90;;;;;;5030646;28;20028;-74
2021/12/30 05:13:11;;;;;;;23.05;6.72;;;12.30;99.90;;;;;;5029646;28;20024;-74
2021/12/30 05:15:38;;;;;;;19.10;7.10;;;12.40;99.90;;;;;;5030337;28;20017;-74
2021/12/30 05:18:06;;;;;;;21.55;6.75;;;12.40;99.90;;;;;;5045453;28;20432;-74
2021/12/30 05:20:31;;;;;;;20.50;6.30;;;12.40;99.90;;;;;;5030125;28;20115;-73
2021/12/30 05:22:58;;;;;;;25.77;6.35;;;12.40;99.90;;;;;;5030186;28;20029;-73
2021/12/30 05:25:24;;;;;;;27.70;7.10;;;12.40;99.90;;;;;;5029805;28;20466;-74
2021/12/30 05:27:51;;;;;;;17.83;6.18;;;12.40;99.90;;;;;;5030484;28;20033;-74
2021/12/30 05:30:18;;;;;;;22.33;6.25;;;12.40;99.90;;;;;;5029734;28;20045;-74
2021/12/30 05:32:44;;;;;;;24.95;6.47;;;12.40;99.90;;;;;;5029761;28;20022;-74
2021/12/30 05:35:11;;;;;;;26.52;5.95;;;12.50;99.90;;;;;;5030193;28;20082;-74
2021/12/30 05:37:38;;;;;;;25.58;5.22;;;12.50;99.90;;;;;;5029954;28;20038;-74
2021/12/30 05:40:07;;;;;;;18.90;5.20;;;12.50;99.90;;;;;;5029892;28;20057;-73
2021/12/30 05:42:32;;;;;;;17.02;4.53;;;12.50;99.90;;;;;;5029999;28;20490;-75
2021/12/30 05:44:58;;;;;;;18.98;4.80;;;12.50;99.90;;;;;;5030555;28;20060;-73
2021/12/30 05:47:24;;;;;;;18.80;4.35;;;12.60;99.90;;;;;;5030610;28;20073;-73
2021/12/30 05:49:50;;;;;;;17.92;4.40;;;12.50;99.90;;;;;;5030917;28;20463;-74
2021/12/30 05:52:16;;;;;;;17.45;4.15;;;12.60;99.90;;;;;;5030028;28;20036;-74
2021/12/30 05:54:42;;;;;;;19.63;4.40;;;12.60;99.90;;;;;;5029899;28;20478;-74
2021/12/30 05:57:09;;;;;;;18.05;3.97;;;12.60;99.90;;;;;;5029920;28;20026;-74
2021/12/30 05:59:34;;;;;;;15.48;3.85;;;12.60;99.90;;;;;;5044904;28;20182;-75
2021/12/30 06:02:00;;;;;;;19.95;4.43;;;12.60;99.90;;;;;;5029564;28;20104;-74
2021/12/30 06:04:26;;;;;;;15.05;4.15;;;12.70;99.90;;;;;;5029871;28;20112;-74
2021/12/30 06:06:52;;;;;;;19.73;4.60;;;12.60;99.90;;;;;;5044785;28;20029;-74
2021/12/30 06:09:21;;;;;;;14.07;4.60;;;12.60;99.90;;;;;;5028986;28;20029;-74
2021/12/30 06:11:46;;;;;;;12.52;4.50;;;12.60;99.90;;;;;;5029206;28;20029;-74
2021/12/30 06:14:12;;;;;;;14.05;4.63;;;12.70;99.90;;;;;;5031523;28;20439;-72
2021/12/30 06:16:38;;;;;;;14.63;4.20;;;12.70;99.90;;;;;;5031030;28;20021;-74
2021/12/30 06:19:04;;;;;;;18.98;5.25;;;12.70;99.90;;;;;;5045912;28;20033;-74
2021/12/30 06:21:29;;;;;;;12.88;5.20;;;12.60;99.90;;;;;;5031157;28;20070;-73
2021/12/30 06:23:55;;;;;;;14.82;5.38;;;12.70;99.90;;;;;;5031171;28;20041;-74
2021/12/30 06:26:20;;;;;;;15.48;5.80;;;12.60;99.90;;;;;;5029282;28;20065;-74
2021/12/30 06:28:46;;;;;;;15.90;7.10;;;12.60;99.90;;;;;;5028456;28;20122;-74
2021/12/30 06:31:11;;;;;;;15.93;6.43;;;12.60;99.90;;;;;;5028735;28;20399;-75
2021/12/30 06:33:37;;;;;;;18.50;7.05;;;12.60;99.90;;;;;;5028388;28;20082;-75
2021/12/30 06:36:04;;;;;;;19.17;6.72;;;12.50;99.90;;;;;;5028785;28;20021;-74
2021/12/30 06:38:31;;;;;;;15.50;6.47;;;12.50;99.90;;;;;;5029089;28;20049;-74
2021/12/30 06:40:57;;;;;;;15.68;6.20;;;12.50;99.90;;;;;;5029039;28;20037;-74
2021/12/30 06:43:22;;;;;;;13.50;4.80;;;12.40;99.90;;;;;;5044185;28;20026;-74
2021/12/30 06:45:48;;;;;;;10.48;3.95;;;12.50;99.90;;;;;;5028764;28;20021;-73
2021/12/30 06:48:15;;;;;;;9.98;3.90;;;12.40;99.90;;;;;;5028370;28;20033;-74
2021/12/30 06:50:42;;;;;;;15.40;4.70;;;12.40;99.90;;;;;;5028481;28;20022;-75
2021/12/30 06:53:11;;;;;;;12.40;4.55;;;12.40;99.90;;;;;;5029510;28;20044;-75
2021/12/30 06:55:36;;;;;;;19.58;5.38;;;12.40;99.90;;;;;;5029175;28;20026;-73
2021/12/30 06:58:02;;;;;;;18.45;5.55;;;12.40;99.90;;;;;;5029109;28;20098;-73
2021/12/30 07:00:27;;;;;;;19.35;5.80;;;12.30;99.90;;;;;;5028951;28;20021;-72
2021/12/30 07:02:53;;;;;;;30.83;6.88;;;12.40;99.90;;;;;;5029468;28;20021;-74
2021/12/30 07:05:18;;;;;;;32.45;8.43;;;12.30;99.90;;;;;;5028847;28;20407;-74
2021/12/30 07:07:44;;;;;;;29.08;8.82;;;12.40;99.90;;;;;;5028720;28;20088;-74
2021/12/30 07:10:10;;;;;;;32.97;9.20;;;12.40;99.90;;;;;;5029032;28;20021;-73
2021/12/30 07:12:37;;;;;;;34.28;8.75;;;12.30;99.90;;;;;;5028537;28;20030;-73
2021/12/30 07:15:04;;;;;;;28.73;9.20;;;12.30;99.90;;;;;;5028752;28;20021;-74
2021/12/30 07:17:31;;;;;;;37.00;9.13;;;12.30;99.90;;;;;;5028552;28;20082;-74
2021/12/30 07:19:57;;;;;;;44.63;8.98;;;12.30;99.90;;;;;;5028549;28;20022;-74
2021/12/30 07:22:23;;;;;;;34.47;10.50;;;12.30;99.90;;;;;;5028654;28;20021;-75
2021/12/30 07:24:49;;;;;;;42.92;9.85;;;12.30;99.90;;;;;;5028345;28;20096;-73
2021/12/30 07:27:15;;;;;;;50.75;10.30;;;12.20;99.90;;;;;;5027976;28;20108;-73
2021/12/30 07:29:40;;;;;;;45.78;9.52;;;12.30;99.90;;;;;;5028010;28;20107;-73
2021/12/30 07:32:06;;;;;;;34.80;9.10;;;12.20;99.90;;;;;;5028598;28;20056;-73
2021/12/30 07:34:31;;;;;;;39.85;8.52;;;12.20;99.90;;;;;;5028765;28;20030;-73
2021/12/30 07:36:57;;;;;;;35.45;7.78;;;12.20;99.90;;;;;;5028475;28;20033;-72
2021/12/30 07:39:23;;;;;;;43.53;9.10;;;12.20;99.90;;;;;;5028702;28;20022;-73
2021/12/30 07:41:48;;;;;;;41.42;9.02;;;12.20;99.90;;;;;;5028662;28;20018;-73
2021/12/30 07:44:15;;;;;;;48.25;9.35;;;12.20;99.90;;;;;;5028379;28;20414;-73
2021/12/30 07:46:41;;;;;;;41.70;8.20;;;12.20;99.90;;;;;;5028017;28;20102;-73
2021/12/30 07:49:06;;;;;;;40.58;7.90;;;12.20;99.90;;;;;;5045105;28;20850;-73
2021/12/30 07:51:32;;;;;;;46.35;8.80;;;12.20;99.90;;;;;;5048281;27;20050;-74
2021/12/30 07:53:58;;;;;;;48.35;8.25;;;12.20;99.90;;;;;;5032497;27;20372;-72
2021/12/30 07:56:26;;;;;;;49.33;8.25;;;12.20;99.90;;;;;;5028084;28;20017;-73
2021/12/30 07:58:51;;;;;;;44.65;8.63;;;12.20;99.90;;;;;;5027256;28;20505;-74
2021/12/30 08:01:17;;;;;;;43.17;8.10;;;12.20;99.90;;;;;;5027346;28;20037;-73
2021/12/30 08:03:43;;;;;;;56.80;9.25;;;12.20;99.90;;;;;;5028907;28;20057;-74
2021/12/30 08:06:08;;;;;;;47.42;8.88;;;12.20;99.90;;;;;;5032177;28;20345;-74
2021/12/30 08:08:34;;;;;;;66.10;10.00;;;12.20;99.90;;;;;;5038687;28;20070;-74
2021/12/30 08:11:00;;;;;;;51.70;8.65;;;12.20;99.90;;;;;;5041134;28;20574;-74
2021/12/30 08:13:26;;;;;;;56.75;8.48;;;12.20;99.90;;;;;;5037008;28;20017;-74
2021/12/30 08:15:52;;;;;;;55.92;8.95;;;12.20;99.90;;;;;;5032689;28;20052;-74
2021/12/30 08:18:18;;;;;;;55.58;8.95;;;12.20;99.90;;;;;;5039055;27;20049;-74
2021/12/30 08:20:43;;;;;;;55.80;9.05;;;12.20;99.90;;;;;;5035096;27;20025;-74
2021/12/30 08:23:09;;;;;;;68.43;10.05;;;12.20;99.90;;;;;;5035044;28;20032;-74
2021/12/30 08:25:34;;;;;;;58.13;8.70;;;12.20;99.90;;;;;;5032810;28;20017;-75
2021/12/30 08:28:00;;;;;;;57.03;8.93;;;12.30;99.90;;;;;;5037066;28;20036;-74
2021/12/30 08:30:26;;;;;;;67.70;10.07;;;12.30;99.90;;;;;;5041023;28;20054;-73
2021/12/30 08:32:52;;;;;;;63.70;9.65;;;12.30;99.90;;;;;;5040830;28;20119;-73
2021/12/30 08:35:22;;;;;;;56.58;8.40;;;12.30;99.90;;;;;;5041247;28;20024;-73
2021/12/30 08:37:50;;;;;;;58.35;9.63;;;12.30;99.90;;;;;;5043715;28;20026;-72
2021/12/30 08:40:16;;;;;;;51.28;9.00;;;12.30;99.90;;;;;;5035984;28;20109;-73
2021/12/30 08:42:43;;;;;;;59.70;8.85;;;12.30;99.90;;;;;;5040550;28;20126;-72
2021/12/30 08:45:10;;;;;;;61.08;9.70;;;12.30;99.90;;;;;;5040889;28;20021;-72
2021/12/30 08:47:36;;;;;;;63.97;9.25;;;12.30;99.90;;;;;;5043675;27;20061;-74
2021/12/30 08:50:04;;;;;;;59.88;8.88;;;12.30;99.90;;;;;;5042347;28;20017;-73
2021/12/30 08:52:30;;;;;;;62.80;8.85;;;12.30;99.90;;;;;;5036279;28;20029;-74
2021/12/30 08:54:59;;;;;;;51.35;8.15;;;12.30;99.90;;;;;;5041738;28;20021;-74
2021/12/30 08:57:25;;;;;;;58.75;8.60;;;12.30;99.90;;;;;;5039124;28;20040;-72
2021/12/30 08:59:51;;;;;;;64.28;8.15;;;12.30;99.90;;;;;;5043178;28;20025;-72
2021/12/30 09:02:16;;;;;;;50.30;7.25;;;12.40;99.90;;;;;;5051206;28;20435;-72
2021/12/30 09:04:46;;;;;;;45.17;6.95;;;12.40;99.90;;;;;;5038339;28;20068;-72
2021/12/30 09:07:12;;;;;;;44.47;7.50;;;12.50;99.90;;;;;;5039544;28;20037;-73
2021/12/30 09:09:39;;;;;;;51.20;6.80;;;12.50;99.90;;;;;;5047996;28;20020;-73
2021/12/30 09:12:05;;;;;;;45.95;7.07;;;12.50;99.90;;;;;;5054303;28;20017;-72
2021/12/30 09:14:31;;;;;;;55.05;6.95;;;12.60;99.90;;;;;;5051192;27;20867;-73
2021/12/30 09:16:56;;;;;;;47.45;6.65;;;12.60;99.90;;;;;;5034600;28;20018;-73
2021/12/30 09:19:22;;;;;;;55.83;7.00;;;12.70;99.90;;;;;;5036178;28;20041;-74
2021/12/30 09:21:47;;;;;;;37.60;6.32;;;12.70;99.90;;;;;;5036410;27;20040;-74
2021/12/30 09:24:13;;;;;;;46.22;7.55;;;12.70;99.90;;;;;;5039829;28;20029;-73
2021/12/30 09:26:40;;;;;;;50.17;7.43;;;12.70;99.90;;;;;;5040813;28;20045;-73
2021/12/30 09:29:10;;;;;;;49.88;7.38;;;12.70;99.90;;;;;;5039060;28;20381;-72
2021/12/30 09:31:38;;;;;;;47.50;7.55;;;12.70;99.90;;;;;;5035753;28;20036;-73
2021/12/30 09:34:04;;;;;;;45.60;7.43;;;12.70;99.90;;;;;;5038544;28;20029;-73
2021/12/30 09:36:30;;;;;;;45.08;6.70;;;12.70;99.90;;;;;;5034318;27;20082;-71
2021/12/30 09:38:55;;;;;;;36.97;6.65;;;12.70;99.90;;;;;;5044698;28;20071;-73
2021/12/30 09:41:24;;;;;;;42.03;7.22;;;12.70;99.90;;;;;;5037688;27;20033;-72
2021/12/30 09:43:49;;;;;;;49.10;7.78;;;12.70;99.90;;;;;;5036627;28;20040;-74
2021/12/30 09:46:16;;;;;;;50.67;7.13;;;12.60;99.90;;;;;;5049074;27;20021;-73
2021/12/30 09:48:43;;;;;;;47.75;7.78;;;12.60;99.90;;;;;;5048061;28;20025;-73
2021/12/30 09:51:09;;;;;;;47.80;7.85;;;12.60;99.90;;;;;;5057070;27;20048;-72
2021/12/30 09:53:35;;;;;;;44.28;6.60;;;12.60;99.90;;;;;;5043554;28;20245;-73
2021/12/30 09:56:00;;;;;;;39.40;5.80;;;12.60;99.90;;;;;;5045163;28;20029;-72
2021/12/30 09:58:27;;;;;;;50.92;7.90;;;12.60;99.90;;;;;;5042421;27;20033;-71
2021/12/30 10:00:54;;;;;;;42.97;6.97;;;12.60;99.90;;;;;;5036555;28;20083;-71
2021/12/30 10:03:20;;;;;;;50.15;7.22;;;12.60;99.90;;;;;;5036210;28;20352;-71
2021/12/30 10:05:46;;;;;;;41.85;6.55;;;12.70;99.90;;;;;;5039436;28;20022;-71
2021/12/30 10:08:24;;;;;;;42.75;7.15;;;12.70;99.90;;;;;;5041903;28;20029;-71
2021/12/30 10:10:52;;;;;;;44.28;6.50;;;12.70;99.90;;;;;;5043263;28;20029;-73
2021/12/30 10:13:18;;;;;;;43.47;7.25;;;12.70;99.90;;;;;;5039771;28;20403;-73
2021/12/30 10:15:46;;;;;;;45.17;7.47;;;12.70;99.90;;;;;;5039037;28;20091;-72
2021/12/30 10:18:12;;;;;;;34.10;6.43;;;12.70;99.90;;;;;;5041345;28;20032;-71
2021/12/30 10:20:40;;;;;;;49.80;7.13;;;12.70;99.90;;;;;;5044544;28;20418;-73
2021/12/30 10:23:14;;;;;;;34.75;6.25;;;12.70;99.90;;;;;;5044796;28;20108;-73
2021/12/30 10:25:43;;;;;;;42.83;7.33;;;12.70;99.90;;;;;;5038970;28;20104;-73
2021/12/30 10:28:31;;;;;;;39.25;7.15;;;12.70;99.90;;;;;;5039421;28;20162;-72
2021/12/30 10:31:19;;;;;;;42.17;7.28;;;12.70;99.90;;;;;;5036763;28;20041;-72
2021/12/30 10:33:56;;;;;;;38.70;5.88;;;12.70;99.90;;;;;;5039604;28;20374;-72
2021/12/30 10:36:28;;;;;;;35.83;5.40;;;12.70;99.90;;;;;;5033694;28;20022;-72
2021/12/30 10:38:55;;;;;;;31.95;5.30;;;12.60;99.90;;;;;;5040234;28;20029;-73
2021/12/30 10:41:24;;;;;;;27.05;5.75;;;12.60;99.90;;;;;;5035743;28;20112;-73
2021/12/30 10:43:55;;;;;;;27.77;6.38;;;12.60;99.90;;;;;;5036159;28;20105;-73
2021/12/30 10:46:26;;;;;;;33.08;5.70;;;12.60;99.90;;;;;;5035721;28;20652;-73
2021/12/30 10:49:09;;;;;;;30.00;5.47;;;12.60;99.90;;;;;;5037165;28;20022;-72
2021/12/30 10:51:48;;;;;;;32.40;5.60;;;12.60;99.90;;;;;;5038941;28;20045;-74
2021/12/30 10:54:19;;;;;;;29.60;4.85;;;12.70;99.90;;;;;;5040646;28;20483;-73
2021/12/30 10:56:50;;;;;;;27.95;4.50;;;12.70;99.90;;;;;;5037671;28;20097;-72
2021/12/30 10:59:24;;;;;;;31.15;5.22;;;12.70;99.90;;;;;;5036524;28;20494;-73
2021/12/30 11:01:56;;;;;;;26.27;5.27;;;12.70;99.90;;;;;;5036080;28;20451;-73
2021/12/30 11:04:36;;;;;;;30.50;5.55;;;12.70;99.90;;;;;;5038816;28;20478;-71
2021/12/30 11:07:01;;;;;;;30.55;5.07;;;12.80;99.90;;;;;;5034662;28;20021;-74
2021/12/30 11:09:27;;;;;;;26.88;4.75;;;12.80;99.90;;;;;;5044288;28;20471;-72
2021/12/30 11:11:56;;;;;;;25.98;4.85;;;12.80;99.90;;;;;;5040062;28;20037;-72
2021/12/30 11:14:31;;;;;;;27.48;5.05;;;12.80;99.90;;;;;;5033377;28;20043;-72
2021/12/30 11:17:09;;;;;;;31.43;5.23;;;12.80;99.90;;;;;;5035972;28;20104;-74
2021/12/30 11:19:54;;;;;;;30.17;4.80;;;12.80;99.90;;;;;;5033672;28;20297;-72
2021/12/30 11:22:23;;;;;;;22.42;5.70;;;12.80;99.90;;;;;;5034429;28;20022;-73
2021/12/30 11:24:50;;;;;;;33.25;5.78;;;12.70;99.90;;;;;;5047980;27;20081;-72
2021/12/30 11:27:18;;;;;;;31.83;5.75;;;12.80;99.90;;;;;;5045696;28;20041;-73
2021/12/30 11:29:46;;;;;;;35.70;6.03;;;12.80;99.90;;;;;;5050114;28;20041;-74
2021/12/30 11:32:16;;;;;;;33.08;6.28;;;12.80;99.90;;;;;;5090892;28;20029;-73
2021/12/30 11:34:42;;;;;;;33.10;5.00;;;12.80;99.90;;;;;;5045234;28;20021;-73
2021/12/30 11:37:08;;;;;;;27.67;5.72;;;12.80;99.90;;;;;;5042743;28;20028;-73
2021/12/30 11:39:35;;;;;;;26.45;5.25;;;12.80;99.90;;;;;;5033230;27;20053;-73
2021/12/30 11:42:11;;;;;;;24.25;4.95;;;12.80;99.90;;;;;;5047268;28;20025;-72
2021/12/30 11:44:43;;;;;;;23.92;6.05;;;12.80;99.90;;;;;;5037457;28;20026;-72
2021/12/30 11:47:32;;;;;;;26.13;5.47;;;12.90;99.90;;;;;;5033211;28;20032;-73
2021/12/30 11:50:04;;;;;;;26.20;5.63;;;12.90;99.90;;;;;;5034114;28;20081;-72
2021/12/30 11:52:46;;;;;;;26.55;5.07;;;12.80;99.90;;;;;;5038614;28;20526;-73
2021/12/30 11:55:49;;;;;;;24.55;4.85;;;12.90;99.90;;;;;;5035868;28;20017;-72
2021/12/30 11:58:27;;;;;;;32.33;5.40;;;12.90;99.90;;;;;;5033755;28;20057;-72
2021/12/30 12:00:54;;;;;;;28.55;5.45;;;12.80;99.90;;;;;;5034159;28;20025;-77
2021/12/30 12:04:03;;;;;;;28.48;5.18;;;12.80;99.90;;;;;;5050730;28;20038;-74
2021/12/30 12:06:44;;;;;;;30.38;5.70;;;12.80;99.90;;;;;;5047943;28;20402;-73
2021/12/30 12:09:32;;;;;;;24.75;5.80;;;12.90;99.90;;;;;;5034300;28;20038;-73
2021/12/30 12:12:05;;;;;;;23.02;5.35;;;12.90;99.90;;;;;;5051081;28;20113;-74
2021/12/30 12:14:51;;;;;;;28.23;6.00;;;12.90;99.90;;;;;;5053291;28;20033;-74
2021/12/30 12:17:38;;;;;;;24.65;5.18;;;12.90;99.90;;;;;;5057258;28;20416;-73
2021/12/30 12:20:21;;;;;;;25.35;5.10;;;13.00;99.90;;;;;;5053317;28;20021;-73
2021/12/30 12:22:47;;;;;;;26.02;6.20;;;13.00;99.90;;;;;;5046729;28;20112;-74
2021/12/30 12:25:19;;;;;;;23.35;5.20;;;12.90;99.90;;;;;;5038992;28;20075;-73
2021/12/30 12:27:47;;;;;;;23.08;4.72;;;12.90;99.90;;;;;;5037709;28;20033;-75
2021/12/30 12:30:30;;;;;;;30.35;5.88;;;13.00;99.90;;;;;;5036872;28;20406;-74
2021/12/30 12:32:57;;;;;;;27.02;5.78;;;12.90;99.90;;;;;;5039715;28;20028;-74
2021/12/30 12:35:26;;;;;;;28.17;5.07;;;13.00;99.90;;;;;;5050688;28;20056;-73
2021/12/30 12:37:56;;;;;;;22.83;5.05;;;13.00;99.90;;;;;;5046196;28;20069;-74